Página principal
METAR-TAF:

METAR-TAF

Aeroportos :

Irkutsk, Rússia

latitude: 52-16N, longitude: 104-19E, altura: 513 m

Observação actual do tempo

O boletim foi feito há 26 minutos, às 04:30 UTC
Vento 4 kt de oes-noroeste
Temperatura 21°C
Humidade 40%
Pressão 993 hPa
Visibilidade 10 km ou mais
sem nuvens abaixo de 1500 metros e sem cumulonimbus

METAR: UIII 230430Z 29002MPS CAVOK 21/07 Q0993 R12/60D NOSIG RMK QFE703/0938

Hora: 12:56 (04:56 UTC)

Previsão

O boletim foi feito há 2 horas e 56 minutos, às 02:00 UTC
Previsão válida de 23 às 03 UTC a 24 às 03 UTC
Vento 6 kt de sul
Visibilidade 10 km ou mais
Tornando-se
de 23 às 04 UTC a 23 às 06 UTC
Nuvens fragmentadasa uma altura de 1500 ft, Cumulonimbus.
Temporariamente
de 23 às 06 UTC a 23 às 24 UTC
Vento 19 kt com direcção variável
trovoada, chuva fraca

TAF: UIII 230200Z 2303/2403 17003MPS 9999 NSC BECMG 2304/2306 BKN015CB TEMPO 2306/2324 VRB10MPS -TSRA

Observações e previsões do tempo de mais de 4000 aeroportos (mensagens METAR e TAF).

As estações disponíveis são os pontos amarelos e vermelhos sobre o mapa.

Mova o rato sobre o mapa para ver o nome da estação.

Depois clique no ponto para visualizar as observações e previsões meteorológicas.

Para alterar o mapa : clique nos botões verdes com uma cruz preta para aumentar o zoom; no botão verde com uma pitada de zoom; ou nas setas verdes para mapas adjacentes.


METAR-TAF: